Time;durP1;ratioP1;P1;durP2;ratioP2;P2;SDS_P1;SDS_P2;PMS_P1;PMS_P2;Temp;Humidity;BMP_temperature;BMP_pressure;BME280_temperature;BME280_humidity;BME280_pressure;Samples;Min_cycle;Max_cycle;Signal;HPM_P1;HPM_P2
2022/12/26 00:00:29;;;;;;;;;;;21.10;73.70;;;;;;1580451;74;725;-77
2022/12/26 00:02:30;;;;;;;;;;;21.00;73.60;;;;;;1571906;74;1926;-77
2022/12/26 00:04:32;;;;;;;;;;;21.00;73.60;;;;;;1587189;73;1168;-75
2022/12/26 00:06:34;;;;;;;;;;;21.00;73.60;;;;;;1582824;74;1558;-77
2022/12/26 00:08:36;;;;;;;;;;;21.10;73.70;;;;;;1575495;74;783;-77
2022/12/26 00:10:38;;;;;;;;;;;21.10;73.70;;;;;;1581879;74;767;-77
2022/12/26 00:12:40;;;;;;;;;;;21.10;73.70;;;;;;1580687;74;709;-77
2022/12/26 00:14:42;;;;;;;;;;;21.00;73.60;;;;;;1571812;74;1046;-77
2022/12/26 00:16:44;;;;;;;;;;;21.10;73.70;;;;;;1575373;74;711;-77
2022/12/26 00:18:46;;;;;;;;;;;21.10;73.60;;;;;;1572588;74;727;-76
2022/12/26 00:20:48;;;;;;;;;;;21.00;73.60;;;;;;1566382;74;1547;-77
2022/12/26 00:22:49;;;;;;;;;;;21.00;73.50;;;;;;1572202;74;1940;-77
2022/12/26 00:24:51;;;;;;;;;;;21.10;73.60;;;;;;1573478;74;746;-77
2022/12/26 00:26:53;;;;;;;;;;;21.10;73.50;;;;;;1577573;74;727;-77
2022/12/26 00:28:55;;;;;;;;;;;21.10;73.60;;;;;;1570962;74;720;-77
2022/12/26 00:30:57;;;;;;;;;;;21.10;73.50;;;;;;1557881;74;724;-77
2022/12/26 00:32:59;;;;;;;;;;;21.10;73.50;;;;;;1572131;73;1079;-76
2022/12/26 00:35:01;;;;;;;;;;;21.10;73.50;;;;;;1555788;74;1614;-76
2022/12/26 00:37:03;;;;;;;;;;;21.10;73.50;;;;;;1567350;74;704;-77
2022/12/26 00:39:04;;;;;;;;;;;21.10;73.60;;;;;;1575148;74;707;-76
2022/12/26 00:41:06;;;;;;;;;;;21.00;73.50;;;;;;1575073;74;794;-76
2022/12/26 00:43:09;;;;;;;;;;;21.00;73.50;;;;;;1560030;74;1932;-75
2022/12/26 00:45:11;;;;;;;;;;;21.10;73.60;;;;;;1570377;74;694;-75
2022/12/26 00:47:13;;;;;;;;;;;21.00;73.50;;;;;;1569148;74;744;-75
2022/12/26 00:49:14;;;;;;;;;;;21.10;73.60;;;;;;1569470;74;672;-76
2022/12/26 00:51:16;;;;;;;;;;;21.00;73.60;;;;;;1579799;74;814;-76
2022/12/26 00:53:18;;;;;;;;;;;21.10;73.60;;;;;;1591000;73;1142;-75
2022/12/26 00:55:20;;;;;;;;;;;21.10;73.60;;;;;;1582420;74;734;-75
2022/12/26 00:57:22;;;;;;;;;;;21.00;73.60;;;;;;1582848;74;714;-75
2022/12/26 00:59:24;;;;;;;;;;;21.10;73.70;;;;;;1574794;74;729;-76
2022/12/26 01:01:29;;;;;;;;;;;21.00;73.60;;;;;;1569187;74;1558;-75
2022/12/26 01:03:29;;;;;;;;;;;21.00;73.60;;;;;;1580059;73;1925;-75
2022/12/26 01:05:31;;;;;;;;;;;21.00;73.60;;;;;;1571153;74;696;-75
2022/12/26 01:07:34;;;;;;;;;;;21.00;73.60;;;;;;1579135;74;685;-75
2022/12/26 01:09:37;;;;;;;;;;;21.10;73.70;;;;;;1571238;74;815;-75
2022/12/26 01:11:41;;;;;;;;;;;21.10;73.60;;;;;;1567606;74;739;-76
2022/12/26 01:13:43;;;;;;;;;;;21.00;73.60;;;;;;1574791;74;1191;-76
2022/12/26 01:15:49;;;;;;;;;;;21.10;75.80;;;;;;1581805;74;1573;-76
2022/12/26 01:17:51;;;;;;;;;;;21.00;75.70;;;;;;1571910;74;727;-76
2022/12/26 01:19:53;;;;;;;;;;;21.00;75.20;;;;;;1567898;74;740;-76
2022/12/26 01:21:55;;;;;;;;;;;21.00;75.00;;;;;;1575927;74;709;-76
2022/12/26 01:23:56;;;;;;;;;;;21.00;74.90;;;;;;1569310;74;1946;-76
2022/12/26 01:25:58;;;;;;;;;;;20.90;74.80;;;;;;1574152;74;720;-76
2022/12/26 01:28:00;;;;;;;;;;;21.00;74.70;;;;;;1575880;74;795;-76
2022/12/26 01:30:02;;;;;;;;;;;20.90;74.80;;;;;;1570100;74;778;-77
2022/12/26 01:32:04;;;;;;;;;;;21.00;74.80;;;;;;1570702;74;785;-77
2022/12/26 01:34:06;;;;;;;;;;;21.00;74.70;;;;;;1564033;74;1131;-77
2022/12/26 01:36:08;;;;;;;;;;;21.00;74.70;;;;;;1569192;74;699;-77
2022/12/26 01:38:10;;;;;;;;;;;21.00;74.80;;;;;;1573660;74;745;-78
2022/12/26 01:40:12;;;;;;;;;;;21.00;74.80;;;;;;1567891;74;767;-78
2022/12/26 01:42:14;;;;;;;;;;;20.90;75.10;;;;;;1570059;74;793;-76
2022/12/26 01:44:34;;;;;;;;;;;20.90;75.10;;;;;;1570917;74;1935;-77
2022/12/26 01:46:43;;;;;;;;;;;20.90;75.10;;;;;;1567760;74;727;-77
2022/12/26 01:48:45;;;;;;;;;;;20.90;75.30;;;;;;1567833;74;756;-77
2022/12/26 01:50:48;;;;;;;;;;;20.90;75.40;;;;;;1580746;74;774;-77
2022/12/26 01:52:50;;;;;;;;;;;20.90;75.50;;;;;;1568472;74;1096;-77
2022/12/26 01:54:52;;;;;;;;;;;20.80;75.40;;;;;;1566651;74;696;-77
2022/12/26 01:56:54;;;;;;;;;;;20.80;75.50;;;;;;1578694;74;705;-77
2022/12/26 01:58:58;;;;;;;;;;;20.90;75.70;;;;;;1595812;74;805;-77
2022/12/26 02:01:00;;;;;;;;;;;20.80;75.60;;;;;;1565986;74;740;-77
2022/12/26 02:05:36;;;;;;;;;;;20.80;75.60;;;;;;1575829;74;1684;-77
2022/12/26 02:07:38;;;;;;;;;;;20.80;75.50;;;;;;1572990;74;762;-77
2022/12/26 02:09:40;;;;;;;;;;;20.90;75.70;;;;;;1570790;74;931;-78
2022/12/26 02:11:43;;;;;;;;;;;20.90;75.80;;;;;;1574211;74;749;-76
2022/12/26 02:13:45;;;;;;;;;;;20.80;75.80;;;;;;1588408;73;1177;-76
2022/12/26 02:15:47;;;;;;;;;;;20.80;75.70;;;;;;1573611;74;814;-76
2022/12/26 02:17:49;;;;;;;;;;;20.80;75.70;;;;;;1568431;74;780;-76
2022/12/26 02:19:52;;;;;;;;;;;20.80;75.70;;;;;;1558249;74;754;-76
2022/12/26 02:22:01;;;;;;;;;;;20.90;75.60;;;;;;1575889;74;1751;-76
2022/12/26 02:24:11;;;;;;;;;;;20.90;75.60;;;;;;1570090;73;1950;-77
2022/12/26 02:26:20;;;;;;;;;;;20.90;75.60;;;;;;1574245;74;1881;-77
2022/12/26 02:28:24;;;;;;;;;;;20.90;75.50;;;;;;1572511;74;683;-76
2022/12/26 02:30:33;;;;;;;;;;;20.90;75.40;;;;;;1567975;74;1476;-76
2022/12/26 02:32:37;;;;;;;;;;;20.90;75.60;;;;;;1568539;74;709;-76
2022/12/26 02:34:40;;;;;;;;;;;20.90;75.40;;;;;;1573972;74;1966;-76
2022/12/26 02:36:49;;;;;;;;;;;20.90;75.40;;;;;;1585220;74;1614;-76
2022/12/26 02:38:56;;;;;;;;;;;20.90;75.30;;;;;;1554979;74;1147;-76
2022/12/26 02:41:02;;;;;;;;;;;20.90;75.30;;;;;;1588639;74;679;-76
2022/12/26 02:43:08;;;;;;;;;;;20.90;75.30;;;;;;1570768;74;1162;-79
2022/12/26 02:47:51;;;;;;;;;;;21.00;75.70;;;;;;1568094;74;655;-78
2022/12/26 03:13:44;;;;;;;;;;;20.90;75.40;;;;;;1572386;74;1630;-77
2022/12/26 03:18:10;;;;;;;;;;;21.00;75.40;;;;;;1577396;74;1659;-77
2022/12/26 03:20:15;;;;;;;;;;;20.90;75.30;;;;;;1574815;74;1664;-77
2022/12/26 03:22:38;;;;;;;;;;;20.90;75.30;;;;;;1570774;74;783;-77
2022/12/26 03:24:20;;;;;;;;;;;21.00;75.30;;;;;;1566155;74;1926;-77
2022/12/26 03:26:42;;;;;;;;;;;20.90;75.20;;;;;;1583714;74;747;-77
2022/12/26 03:28:44;;;;;;;;;;;21.00;75.30;;;;;;1584572;74;718;-77
2022/12/26 03:30:49;;;;;;;;;;;21.00;75.20;;;;;;1574895;74;1584;-77
2022/12/26 03:32:51;;;;;;;;;;;21.00;75.20;;;;;;1566660;74;1181;-78
2022/12/26 03:34:52;;;;;;;;;;;21.00;75.20;;;;;;1548132;75;748;-77
2022/12/26 03:36:56;;;;;;;;;;;20.90;75.30;;;;;;1572505;74;740;-77
2022/12/26 03:39:06;;;;;;;;;;;20.90;75.30;;;;;;1573796;74;728;-77
2022/12/26 04:19:27;;;;;;;;;;;20.90;76.80;;;;;;1519128;76;1672;-58
2022/12/26 04:45:13;;;;;;;;;;;20.90;75.90;;;;;;1531271;76;1900;-59
2022/12/26 04:47:15;;;;;;;;;;;20.80;75.90;;;;;;1531338;76;663;-59
2022/12/26 04:51:37;;;;;;;;;;;20.80;75.90;;;;;;1522875;76;1641;-59
2022/12/26 04:53:39;;;;;;;;;;;20.90;76.10;;;;;;1515242;77;732;-60
2022/12/26 04:55:41;;;;;;;;;;;20.90;76.10;;;;;;1533508;76;1653;-59
2022/12/26 04:57:42;;;;;;;;;;;20.90;75.90;;;;;;1536261;76;713;-59
2022/12/26 04:59:44;;;;;;;;;;;20.90;75.90;;;;;;1516516;76;1138;-59
2022/12/26 05:11:05;;;;;;;;;;;20.90;76.20;;;;;;1521287;76;590;-59
2022/12/26 05:13:07;;;;;;;;;;;20.90;76.30;;;;;;1538951;76;723;-58
2022/12/26 05:15:09;;;;;;;;;;;20.90;76.70;;;;;;1518479;76;751;-58
2022/12/26 05:28:53;;;;;;;;;;;20.80;77.30;;;;;;1519429;76;1656;-59
2022/12/26 05:30:54;;;;;;;;;;;20.80;77.00;;;;;;1515663;76;2144;-60
2022/12/26 05:35:16;;;;;;;;;;;20.80;78.50;;;;;;1532382;76;1629;-60
2022/12/26 05:37:18;;;;;;;;;;;20.80;77.50;;;;;;1532545;76;1482;-59
2022/12/26 05:39:20;;;;;;;;;;;20.80;77.20;;;;;;1532266;76;1104;-59
2022/12/26 05:41:22;;;;;;;;;;;20.80;77.20;;;;;;1526534;76;741;-59
2022/12/26 05:43:24;;;;;;;;;;;20.80;76.90;;;;;;1513578;76;728;-58
2022/12/26 05:45:26;;;;;;;;;;;20.80;76.70;;;;;;1522572;76;1925;-60
2022/12/26 05:47:28;;;;;;;;;;;20.90;76.60;;;;;;1525859;76;802;-60
2022/12/26 05:49:30;;;;;;;;;;;20.90;76.50;;;;;;1534353;76;1165;-60
2022/12/26 05:51:32;;;;;;;;;;;20.90;76.40;;;;;;1538783;76;1198;-61
2022/12/26 05:53:34;;;;;;;;;;;20.90;76.30;;;;;;1537183;76;628;-58
2022/12/26 05:55:36;;;;;;;;;;;20.90;76.20;;;;;;1530831;77;719;-58
2022/12/26 05:57:37;;;;;;;;;;;20.90;76.10;;;;;;1538211;76;720;-57
2022/12/26 05:59:39;;;;;;;;;;;20.90;76.10;;;;;;1527611;76;1122;-58
2022/12/26 06:01:41;;;;;;;;;;;20.90;76.00;;;;;;1523276;76;786;-58
2022/12/26 06:03:43;;;;;;;;;;;20.90;75.90;;;;;;1530478;76;675;-57
2022/12/26 06:05:45;;;;;;;;;;;20.90;76.00;;;;;;1503417;78;1928;-60
2022/12/26 06:07:47;;;;;;;;;;;20.90;76.50;;;;;;1531960;76;779;-59
2022/12/26 06:09:49;;;;;;;;;;;20.90;77.30;;;;;;1541639;76;1159;-59
2022/12/26 06:11:51;;;;;;;;;;;20.90;78.20;;;;;;1530196;76;796;-58
2022/12/26 06:13:53;;;;;;;;;;;20.90;77.30;;;;;;1532395;76;783;-57
2022/12/26 06:15:55;;;;;;;;;;;20.90;76.80;;;;;;1536863;76;553;-57
2022/12/26 06:17:57;;;;;;;;;;;20.90;76.70;;;;;;1534864;76;734;-56
2022/12/26 06:19:59;;;;;;;;;;;20.90;76.60;;;;;;1530837;76;1607;-58
2022/12/26 06:22:00;;;;;;;;;;;20.80;76.40;;;;;;1532725;76;781;-58
2022/12/26 06:24:02;;;;;;;;;;;20.90;76.30;;;;;;1527436;76;773;-57
2022/12/26 06:26:04;;;;;;;;;;;20.90;76.20;;;;;;1521946;76;1935;-59
2022/12/26 06:28:06;;;;;;;;;;;21.00;76.00;;;;;;1529122;76;741;-59
2022/12/26 06:30:09;;;;;;;;;;;21.00;75.80;;;;;;1526780;76;1163;-57
2022/12/26 06:32:10;;;;;;;;;;;21.00;75.70;;;;;;1526625;76;790;-58
2022/12/26 06:34:12;;;;;;;;;;;21.00;75.50;;;;;;1530323;76;1716;-58
2022/12/26 06:36:15;;;;;;;;;;;21.00;75.30;;;;;;1530643;76;706;-58
2022/12/26 06:38:17;;;;;;;;;;;21.00;75.20;;;;;;1533669;76;1147;-58
2022/12/26 06:40:19;;;;;;;;;;;21.10;75.20;;;;;;1528523;76;791;-58
2022/12/26 06:42:21;;;;;;;;;;;21.00;75.00;;;;;;1525770;76;745;-58
2022/12/26 06:44:23;;;;;;;;;;;21.00;75.00;;;;;;1539494;76;741;-56
2022/12/26 06:46:25;;;;;;;;;;;21.00;74.90;;;;;;1529328;76;1937;-58
2022/12/26 06:48:27;;;;;;;;;;;21.10;74.90;;;;;;1539384;76;1143;-57
2022/12/26 06:50:29;;;;;;;;;;;21.00;74.80;;;;;;1527110;76;555;-59
2022/12/26 06:52:30;;;;;;;;;;;21.00;74.80;;;;;;1528973;76;716;-59
2022/12/26 06:54:32;;;;;;;;;;;21.00;74.70;;;;;;1527850;76;712;-58
2022/12/26 06:56:34;;;;;;;;;;;21.00;74.60;;;;;;1533725;76;657;-57
2022/12/26 06:58:36;;;;;;;;;;;21.10;74.70;;;;;;1523975;76;1167;-58
2022/12/26 07:00:38;;;;;;;;;;;21.00;74.60;;;;;;1529554;76;1447;-56
2022/12/26 07:02:40;;;;;;;;;;;21.00;74.60;;;;;;1531113;76;762;-57
2022/12/26 07:04:42;;;;;;;;;;;21.00;74.50;;;;;;1528510;76;1924;-57
2022/12/26 07:06:44;;;;;;;;;;;21.00;74.50;;;;;;1536215;76;707;-57
2022/12/26 07:08:46;;;;;;;;;;;21.00;74.50;;;;;;1530933;76;1142;-57
2022/12/26 07:10:48;;;;;;;;;;;21.00;74.40;;;;;;1542377;76;684;-59
2022/12/26 07:12:50;;;;;;;;;;;21.00;74.50;;;;;;1546157;76;737;-57
2022/12/26 07:14:52;;;;;;;;;;;21.00;74.50;;;;;;1524435;76;1428;-59
2022/12/26 07:16:53;;;;;;;;;;;21.00;74.50;;;;;;1530328;76;781;-57
2022/12/26 07:18:56;;;;;;;;;;;21.00;74.40;;;;;;1541005;76;1179;-57
2022/12/26 07:20:58;;;;;;;;;;;21.00;74.50;;;;;;1528312;76;667;-57
2022/12/26 07:22:59;;;;;;;;;;;21.00;74.40;;;;;;1546378;76;710;-59
2022/12/26 07:25:01;;;;;;;;;;;20.90;74.40;;;;;;1547026;76;1963;-58
2022/12/26 07:27:03;;;;;;;;;;;21.00;74.40;;;;;;1544975;76;682;-58
2022/12/26 07:29:05;;;;;;;;;;;21.00;74.40;;;;;;1531833;76;1540;-58
2022/12/26 07:31:07;;;;;;;;;;;21.00;74.40;;;;;;1529784;76;718;-57
2022/12/26 07:33:09;;;;;;;;;;;20.90;74.40;;;;;;1532734;76;789;-58
2022/12/26 07:35:11;;;;;;;;;;;20.90;74.40;;;;;;1517466;76;747;-58
2022/12/26 07:37:13;;;;;;;;;;;20.90;74.40;;;;;;1527635;76;716;-58
2022/12/26 07:39:15;;;;;;;;;;;20.90;74.40;;;;;;1527218;76;1168;-58
2022/12/26 07:43:36;;;;;;;;;;;20.90;74.30;;;;;;1533101;76;1649;-57
2022/12/26 07:45:38;;;;;;;;;;;20.90;74.40;;;;;;1529552;76;1948;-57
2022/12/26 07:47:40;;;;;;;;;;;20.90;74.40;;;;;;1529494;76;634;-56
2022/12/26 07:49:42;;;;;;;;;;;20.90;74.50;;;;;;1534017;76;1145;-58
2022/12/26 07:51:44;;;;;;;;;;;20.90;74.50;;;;;;1532758;76;642;-58
2022/12/26 07:53:47;;;;;;;;;;;20.90;74.40;;;;;;1528233;76;632;-58
2022/12/26 07:55:49;;;;;;;;;;;20.90;74.40;;;;;;1529368;76;643;-57
2022/12/26 07:57:51;;;;;;;;;;;20.90;74.40;;;;;;1525936;76;1468;-58
2022/12/26 07:59:53;;;;;;;;;;;20.90;74.40;;;;;;1525997;76;1119;-57
2022/12/26 08:01:56;;;;;;;;;;;20.90;74.40;;;;;;1529116;76;723;-59
2022/12/26 08:03:58;;;;;;;;;;;20.90;74.40;;;;;;1530433;76;699;-57
2022/12/26 08:06:00;;;;;;;;;;;20.90;74.40;;;;;;1531022;76;1923;-57
2022/12/26 08:08:02;;;;;;;;;;;20.80;74.30;;;;;;1533936;76;708;-57
2022/12/26 08:10:04;;;;;;;;;;;20.90;74.50;;;;;;1539121;76;1108;-59
2022/12/26 08:12:06;;;;;;;;;;;20.80;74.30;;;;;;1530657;76;1467;-57
2022/12/26 08:14:09;;;;;;;;;;;20.90;74.40;;;;;;1537042;76;787;-58
2022/12/26 08:16:11;;;;;;;;;;;20.90;74.40;;;;;;1535438;76;801;-58
2022/12/26 08:18:13;;;;;;;;;;;20.80;74.20;;;;;;1538215;76;798;-57
2022/12/26 08:20:15;;;;;;;;;;;20.80;74.30;;;;;;1533354;76;660;-56
2022/12/26 08:22:17;;;;;;;;;;;20.80;74.30;;;;;;1526917;76;786;-57
2022/12/26 08:24:19;;;;;;;;;;;20.80;74.30;;;;;;1533852;76;702;-57
2022/12/26 08:26:22;;;;;;;;;;;20.80;74.30;;;;;;1534464;76;1942;-58
2022/12/26 08:28:24;;;;;;;;;;;20.80;74.30;;;;;;1534716;76;1142;-57
2022/12/26 08:30:25;;;;;;;;;;;20.80;74.40;;;;;;1533869;76;759;-58
2022/12/26 08:32:27;;;;;;;;;;;20.80;74.30;;;;;;1529677;76;715;-58
2022/12/26 08:34:33;;;;;;;;;;;20.80;74.30;;;;;;1528742;76;711;-58
2022/12/26 08:36:35;;;;;;;;;;;20.70;74.30;;;;;;1528048;76;833;-58
2022/12/26 08:38:37;;;;;;;;;;;20.70;74.30;;;;;;1537145;76;1142;-57
2022/12/26 08:40:39;;;;;;;;;;;20.80;74.30;;;;;;1529611;76;1424;-58
2022/12/26 08:42:40;;;;;;;;;;;20.70;74.30;;;;;;1533219;76;667;-57
2022/12/26 08:44:42;;;;;;;;;;;20.70;74.30;;;;;;1532105;76;740;-56
2022/12/26 08:46:44;;;;;;;;;;;20.70;74.30;;;;;;1531825;76;1944;-59
2022/12/26 08:48:46;;;;;;;;;;;20.70;74.40;;;;;;1532478;76;1142;-58
2022/12/26 08:50:48;;;;;;;;;;;20.70;74.30;;;;;;1532217;76;746;-58
2022/12/26 08:52:50;;;;;;;;;;;20.70;74.30;;;;;;1537105;76;726;-58
2022/12/26 08:54:52;;;;;;;;;;;20.80;74.30;;;;;;1537424;76;722;-58
2022/12/26 08:56:54;;;;;;;;;;;20.80;74.30;;;;;;1528070;76;643;-57
2022/12/26 08:58:55;;;;;;;;;;;20.70;74.30;;;;;;1528385;76;1154;-57
2022/12/26 09:00:59;;;;;;;;;;;20.70;74.30;;;;;;1528117;76;756;-58
2022/12/26 09:03:01;;;;;;;;;;;20.70;74.30;;;;;;1533506;76;1804;-58
2022/12/26 09:05:03;;;;;;;;;;;20.70;74.30;;;;;;1527084;76;753;-58
2022/12/26 09:07:06;;;;;;;;;;;20.70;74.30;;;;;;1533017;76;1935;-58
2022/12/26 09:09:10;;;;;;;;;;;20.70;74.30;;;;;;1532467;76;1149;-57
2022/12/26 09:11:13;;;;;;;;;;;20.70;74.30;;;;;;1529058;76;793;-58
2022/12/26 09:13:15;;;;;;;;;;;20.80;74.30;;;;;;1530299;76;731;-57
2022/12/26 09:15:16;;;;;;;;;;;20.70;74.30;;;;;;1532750;76;884;-58
2022/12/26 09:17:18;;;;;;;;;;;20.70;74.30;;;;;;1529655;76;1068;-58
2022/12/26 09:19:20;;;;;;;;;;;20.70;74.30;;;;;;1531241;76;1215;-59
2022/12/26 09:21:22;;;;;;;;;;;20.70;74.30;;;;;;1524916;76;657;-56
2022/12/26 09:23:24;;;;;;;;;;;20.70;74.30;;;;;;1525780;76;734;-57
2022/12/26 09:25:26;;;;;;;;;;;20.70;74.30;;;;;;1536045;76;1930;-57
2022/12/26 09:27:28;;;;;;;;;;;20.70;74.30;;;;;;1529772;76;618;-57
2022/12/26 09:29:30;;;;;;;;;;;20.70;74.30;;;;;;1534991;76;1115;-58
2022/12/26 09:31:32;;;;;;;;;;;20.60;74.20;;;;;;1536742;76;806;-57
2022/12/26 09:33:39;;;;;;;;;;;20.60;74.20;;;;;;1540191;76;809;-57
2022/12/26 09:35:41;;;;;;;;;;;20.70;74.30;;;;;;1529238;76;1484;-56
2022/12/26 09:37:42;;;;;;;;;;;20.70;74.30;;;;;;1542349;76;656;-56
2022/12/26 09:39:44;;;;;;;;;;;20.60;74.20;;;;;;1535972;76;1173;-57
2022/12/26 09:42:00;;;;;;;;;;;20.70;74.30;;;;;;1531972;76;741;-56
2022/12/26 09:44:09;;;;;;;;;;;20.60;74.20;;;;;;1498966;76;1126;-55
2022/12/26 09:46:19;;;;;;;;;;;20.70;74.30;;;;;;1494414;76;1954;-57
2022/12/26 09:48:25;;;;;;;;;;;20.60;74.20;;;;;;1538782;76;1152;-57
2022/12/26 09:50:28;;;;;;;;;;;20.70;74.30;;;;;;1526414;76;1026;-57
2022/12/26 09:52:48;;;;;;;;;;;20.70;74.40;;;;;;1526172;76;754;-57
2022/12/26 09:54:51;;;;;;;;;;;20.60;74.40;;;;;;1532952;76;1488;-58
2022/12/26 09:56:53;;;;;;;;;;;20.50;75.00;;;;;;1534707;76;705;-58
2022/12/26 09:58:56;;;;;;;;;;;20.40;75.90;;;;;;1531889;76;1195;-58
2022/12/26 10:01:05;;;;;;;;;;;20.40;76.50;;;;;;1533766;76;660;-58
2022/12/26 10:03:08;;;;;;;;;;;20.40;77.30;;;;;;1529748;76;847;-58
2022/12/26 10:05:11;;;;;;;;;;;20.50;77.50;;;;;;1524595;76;769;-57
2022/12/26 10:07:18;;;;;;;;;;;20.40;77.70;;;;;;1530951;76;1929;-60
2022/12/26 10:09:27;;;;;;;;;;;20.40;77.80;;;;;;1548097;73;3112;-62
2022/12/26 10:11:31;;;;;;;;;;;20.50;77.90;;;;;;1579326;74;743;-62
2022/12/26 10:13:49;;;;;;;;;;;20.50;78.20;;;;;;1566889;74;1881;-61
2022/12/26 10:15:53;;;;;;;;;;;20.50;78.10;;;;;;1590502;74;1689;-60
2022/12/26 10:17:56;;;;;;;;;;;20.60;78.00;;;;;;1585277;73;721;-61
2022/12/26 10:20:02;;;;;;;;;;;20.50;78.10;;;;;;1581995;74;1141;-63
2022/12/26 10:22:12;;;;;;;;;;;20.50;78.20;;;;;;1571738;74;1818;-62
2022/12/26 10:24:15;;;;;;;;;;;20.50;78.30;;;;;;1574875;74;681;-61
2022/12/26 10:26:18;;;;;;;;;;;20.50;78.40;;;;;;1582381;74;1909;-61
2022/12/26 10:28:24;;;;;;;;;;;20.70;78.70;;;;;;1582788;74;1156;-60
2022/12/26 10:30:28;;;;;;;;;;;20.60;79.10;;;;;;1582020;74;2063;-60
2022/12/26 10:32:40;;;;;;;;;;;20.60;79.30;;;;;;1575788;74;773;-60
2022/12/26 10:34:43;;;;;;;;;;;20.70;80.50;;;;;;1545652;74;1029;-60
2022/12/26 10:36:53;;;;;;;;;;;20.70;81.30;;;;;;1575510;74;790;-62
2022/12/26 10:38:55;;;;;;;;;;;20.70;82.00;;;;;;1594564;73;1137;-61
2022/12/26 10:40:58;;;;;;;;;;;20.80;82.20;;;;;;1584052;74;884;-58
2022/12/26 10:43:01;;;;;;;;;;;20.70;82.20;;;;;;1579539;74;864;-58
2022/12/26 10:45:22;;;;;;;;;;;20.80;82.70;;;;;;1581886;74;1767;-58
2022/12/26 10:47:31;;;;;;;;;;;20.80;82.50;;;;;;1600819;74;1904;-60
2022/12/26 10:49:33;;;;;;;;;;;20.80;82.70;;;;;;1584593;73;1538;-58
2022/12/26 10:51:36;;;;;;;;;;;20.80;82.50;;;;;;1578562;74;768;-58
2022/12/26 10:53:40;;;;;;;;;;;20.80;82.40;;;;;;1583996;74;751;-60
2022/12/26 10:55:42;;;;;;;;;;;20.80;82.10;;;;;;1580110;74;794;-57
2022/12/26 10:57:44;;;;;;;;;;;20.80;82.10;;;;;;1582404;74;768;-58
2022/12/26 10:59:48;;;;;;;;;;;20.90;82.30;;;;;;1588320;74;1128;-58
2022/12/26 11:01:50;;;;;;;;;;;20.90;82.10;;;;;;1567135;74;1021;-60
2022/12/26 11:03:56;;;;;;;;;;;20.90;82.20;;;;;;1579616;74;870;-58
2022/12/26 11:05:58;;;;;;;;;;;21.00;82.00;;;;;;1581537;74;769;-60
2022/12/26 11:08:07;;;;;;;;;;;21.00;82.00;;;;;;1609896;72;939;-59
2022/12/26 11:10:20;;;;;;;;;;;21.00;81.90;;;;;;1515453;76;1887;-60
2022/12/26 11:12:23;;;;;;;;;;;20.90;81.70;;;;;;1520289;76;1861;-59
2022/12/26 11:14:29;;;;;;;;;;;20.90;81.30;;;;;;1516802;76;1858;-59
2022/12/26 11:16:35;;;;;;;;;;;21.00;81.00;;;;;;1531160;76;696;-58
2022/12/26 11:18:37;;;;;;;;;;;20.90;80.80;;;;;;1518158;76;1190;-59
2022/12/26 11:20:39;;;;;;;;;;;21.00;80.70;;;;;;1578951;74;813;-59
2022/12/26 11:22:41;;;;;;;;;;;20.90;80.40;;;;;;1582555;74;749;-60
2022/12/26 11:24:43;;;;;;;;;;;21.00;80.30;;;;;;1585890;73;717;-59
2022/12/26 11:26:45;;;;;;;;;;;20.90;80.60;;;;;;1582145;73;1941;-60
2022/12/26 11:28:47;;;;;;;;;;;21.00;81.30;;;;;;1587789;74;1150;-61
2022/12/26 11:30:49;;;;;;;;;;;21.00;80.70;;;;;;1579930;74;591;-59
2022/12/26 11:32:52;;;;;;;;;;;21.00;80.40;;;;;;1580662;74;790;-60
2022/12/26 11:34:54;;;;;;;;;;;21.00;80.20;;;;;;1572498;74;1943;-59
2022/12/26 11:36:56;;;;;;;;;;;21.00;80.10;;;;;;1593682;74;758;-59
2022/12/26 11:38:59;;;;;;;;;;;21.00;79.80;;;;;;1577939;73;1153;-59
2022/12/26 11:43:25;;;;;;;;;;;21.00;80.00;;;;;;1564374;74;1689;-60
2022/12/26 11:45:28;;;;;;;;;;;20.90;79.50;;;;;;1577926;73;1509;-59
2022/12/26 11:47:30;;;;;;;;;;;20.90;79.70;;;;;;1588461;73;1958;-59
2022/12/26 11:49:32;;;;;;;;;;;20.90;79.70;;;;;;1585374;73;1147;-59
2022/12/26 11:51:35;;;;;;;;;;;20.90;79.50;;;;;;1580026;74;654;-59
2022/12/26 11:53:37;;;;;;;;;;;20.90;79.40;;;;;;1583181;74;593;-59
2022/12/26 11:55:39;;;;;;;;;;;20.90;79.30;;;;;;1579158;74;672;-60
2022/12/26 11:57:41;;;;;;;;;;;20.90;79.10;;;;;;1582242;74;709;-62
2022/12/26 11:59:43;;;;;;;;;;;20.90;79.00;;;;;;1573427;74;1139;-61
2022/12/26 12:01:45;;;;;;;;;;;20.90;79.00;;;;;;1582774;74;680;-60
2022/12/26 12:03:47;;;;;;;;;;;20.90;78.90;;;;;;1584286;74;744;-59
2022/12/26 12:05:54;;;;;;;;;;;20.90;78.80;;;;;;1581438;74;748;-59
2022/12/26 12:08:00;;;;;;;;;;;20.90;78.80;;;;;;1590355;74;1899;-59
2022/12/26 12:10:04;;;;;;;;;;;20.90;78.70;;;;;;1512382;74;1149;-60
2022/12/26 12:12:16;;;;;;;;;;;20.90;78.70;;;;;;1582967;74;763;-60
2022/12/26 12:14:29;;;;;;;;;;;20.80;78.50;;;;;;1579270;74;691;-59
2022/12/26 12:16:42;;;;;;;;;;;20.90;78.60;;;;;;1583247;74;703;-61
2022/12/26 12:19:03;;;;;;;;;;;20.90;78.60;;;;;;1582359;74;1162;-59
2022/12/26 12:21:22;;;;;;;;;;;20.80;78.50;;;;;;1572912;74;529;-60
2022/12/26 12:23:31;;;;;;;;;;;20.80;78.50;;;;;;1565857;74;781;-59
2022/12/26 12:25:47;;;;;;;;;;;20.80;78.50;;;;;;1583861;74;1988;-60
2022/12/26 12:27:53;;;;;;;;;;;20.70;78.50;;;;;;1581535;74;1941;-59
2022/12/26 12:30:03;;;;;;;;;;;20.90;78.60;;;;;;1585342;74;1162;-61
2022/12/26 12:32:06;;;;;;;;;;;20.80;78.30;;;;;;1571845;74;1851;-61
2022/12/26 12:34:12;;;;;;;;;;;20.80;78.30;;;;;;1584300;74;816;-60
2022/12/26 12:36:17;;;;;;;;;;;20.80;78.20;;;;;;1590954;74;707;-61
2022/12/26 12:38:23;;;;;;;;;;;20.80;78.20;;;;;;1587534;73;1145;-61
2022/12/26 12:40:27;;;;;;;;;;;20.80;78.20;;;;;;1581429;74;745;-61
2022/12/26 12:42:42;;;;;;;;;;;20.80;78.20;;;;;;1581478;74;1533;-59
2022/12/26 12:44:48;;;;;;;;;;;20.80;78.20;;;;;;1583248;73;1917;-60
2022/12/26 12:47:04;;;;;;;;;;;20.70;78.10;;;;;;1537663;75;1946;-60
2022/12/26 12:49:07;;;;;;;;;;;20.80;78.00;;;;;;1582832;74;1142;-60
2022/12/26 12:51:28;;;;;;;;;;;20.80;78.00;;;;;;1583140;73;1845;-59
2022/12/26 12:53:31;;;;;;;;;;;20.80;78.10;;;;;;1579742;74;795;-60
2022/12/26 12:55:35;;;;;;;;;;;20.70;78.00;;;;;;1580188;74;793;-59
2022/12/26 12:57:38;;;;;;;;;;;20.70;78.00;;;;;;1580087;74;1962;-59
2022/12/26 12:59:42;;;;;;;;;;;20.70;77.90;;;;;;1589987;73;1924;-61
2022/12/26 13:01:44;;;;;;;;;;;20.70;77.90;;;;;;1579077;74;741;-60
2022/12/26 13:03:54;;;;;;;;;;;20.70;78.00;;;;;;1581038;74;673;-60
2022/12/26 13:06:07;;;;;;;;;;;20.70;77.90;;;;;;1582635;74;802;-60
2022/12/26 13:08:16;;;;;;;;;;;20.70;77.80;;;;;;1585179;74;1929;-60
2022/12/26 13:10:22;;;;;;;;;;;20.80;77.80;;;;;;1584489;74;1796;-62
2022/12/26 13:12:26;;;;;;;;;;;20.80;77.80;;;;;;1572679;74;724;-59
2022/12/26 13:14:32;;;;;;;;;;;20.80;77.80;;;;;;1575526;74;727;-59
2022/12/26 13:16:42;;;;;;;;;;;20.80;77.80;;;;;;1580942;74;709;-59
2022/12/26 13:18:45;;;;;;;;;;;20.80;77.70;;;;;;1581469;74;1167;-60
2022/12/26 13:20:52;;;;;;;;;;;20.70;77.60;;;;;;1585891;74;1188;-60
2022/12/26 13:25:15;;;;;;;;;;;20.70;77.60;;;;;;1589978;73;590;-73
2022/12/26 13:27:21;;;;;;;;;;;20.70;77.60;;;;;;1601289;73;1929;-73
2022/12/26 13:29:42;;;;;;;;;;;20.70;77.50;;;;;;1577421;73;1182;-73
2022/12/26 13:31:44;;;;;;;;;;;20.70;77.50;;;;;;1578272;74;709;-73
2022/12/26 13:33:45;;;;;;;;;;;20.70;77.50;;;;;;1590846;74;731;-73
2022/12/26 13:35:52;;;;;;;;;;;20.70;77.40;;;;;;1563394;74;697;-74
2022/12/26 13:37:55;;;;;;;;;;;20.70;77.50;;;;;;1590309;74;1586;-74
2022/12/26 13:39:57;;;;;;;;;;;20.70;77.40;;;;;;1587955;74;765;-73
2022/12/26 13:44:26;;;;;;;;;;;20.70;77.40;;;;;;1570614;74;1656;-74
2022/12/26 13:46:43;;;;;;;;;;;20.70;77.40;;;;;;1583803;74;667;-73
2022/12/26 13:48:46;;;;;;;;;;;20.70;77.40;;;;;;1582516;73;1939;-75
2022/12/26 13:50:49;;;;;;;;;;;20.70;77.40;;;;;;1583605;74;773;-72
2022/12/26 13:52:51;;;;;;;;;;;20.70;77.40;;;;;;1579271;74;727;-73
2022/12/26 13:54:56;;;;;;;;;;;20.70;77.40;;;;;;1601043;74;778;-71
2022/12/26 13:57:02;;;;;;;;;;;20.70;77.40;;;;;;1588815;74;684;-72
2022/12/26 13:59:05;;;;;;;;;;;20.70;77.40;;;;;;1587798;73;1414;-73
2022/12/26 14:01:25;;;;;;;;;;;20.70;77.30;;;;;;1583753;74;1616;-72
2022/12/26 14:03:31;;;;;;;;;;;20.70;77.30;;;;;;1582401;74;770;-73
2022/12/26 14:05:38;;;;;;;;;;;20.70;77.10;;;;;;1555786;74;1595;-74
2022/12/26 14:07:44;;;;;;;;;;;20.70;77.20;;;;;;1577266;74;1926;-73
2022/12/26 14:10:00;;;;;;;;;;;20.70;77.10;;;;;;1574751;74;1956;-73
2022/12/26 14:12:22;;;;;;;;;;;20.70;77.10;;;;;;1579503;74;754;-73
2022/12/26 14:14:28;;;;;;;;;;;20.80;77.10;;;;;;1582126;74;654;-72
2022/12/26 14:16:35;;;;;;;;;;;20.70;77.10;;;;;;1593102;74;1205;-73
2022/12/26 14:18:50;;;;;;;;;;;20.70;77.10;;;;;;1582572;74;1080;-73
2022/12/26 14:21:10;;;;;;;;;;;20.70;77.10;;;;;;1553842;74;934;-72
2022/12/26 14:23:20;;;;;;;;;;;20.70;77.10;;;;;;1572477;74;807;-73
2022/12/26 14:25:23;;;;;;;;;;;20.70;77.00;;;;;;1573426;74;676;-73
2022/12/26 14:27:29;;;;;;;;;;;20.60;76.90;;;;;;1586274;74;1926;-73